Land O' Lakes, WI

5:21 AM CDT on September 21, 2017 (GMT -0500)
Kings Land O'Lakes | | Change Station
Active Advisory: Dense Fog Advisory

Elev 1703 ft 46.15 °N, 89.21 °W | Updated 26 minutes ago

Fog
Fog
47 °F
Feels Like 47 °F
N
0
Wind Variable Wind from North

Today
High -- | Low -- °F
--% Chance of Precip.
Yesterday
High -- | Low -- °F
Precip. -- in
Pressure 30.04 in
Visibility 0.2 miles
Clouds
Dew Point 47 °F
Humidity 100%
Rainfall 0.00 in
Snow Depth Not available.
6:42 AM 6:55 PM
New Moon, 2% visible
METAR KLNL 210955Z AUTO 00000KT 1/4SM FG VV002 08/08 A3004 RMK AO2 T00810081
Pressure 30.04 in
Visibility 0.2 miles
Clouds
Dew Point 47 °F
Humidity 100%
Rainfall 0.00 in
Snow Depth Not available.
6:42 AM 6:55 PM
New Moon, 2% visible
METAR KLNL 210955Z AUTO 00000KT 1/4SM FG VV002 08/08 A3004 RMK AO2 T00810081

Get Your Daily Forecast Email!

Thanks for signing up!

Be on the lookout for a verification email in your inbox.

You'll start receiving severe weather alerts in your inbox..

×

10-Day Weather Forecast

Almanac

Astronomy

Sep. 21, 2017 Rise Set
Actual Time
Civil Twilight
Nautical Twilight
Astronomical Twilight
Moon
Length of Visible Light
Length of Day
Tomorrow will be .
, % of the Moon is Illuminated

Today's Extremes

State Highs State Lows

Community

WunderPhotos

Category 6

Welcome to Category 6. This is the collective home for Weather Underground's featured writeups by Dr. Jeff Masters (right), Bob Henson (left), Chris Burt, and other regular contributors.

Nearby

Air Quality

  Air Quality AQ Index Pollutant
Not available.

Snow Depth

Station Depth Elevation

Earthquake Activity

City Distance Mag. Time & Date
Minimum magnitude displayed is 2.5.

Coastal Water Temperatures

Place Temperature

Stations

Nearby Weather Stations

Station Location Temp. Windchill Dew Point Humidity Wind Precip. Elev Updated Type
                   

Watches & Warnings

Dense Fog Advisory
Issued: 10:15 PM CDT Sep. 20, 2017 – National Weather Service

... Dense fog advisory in effect until 9 am CDT Thursday...

The National Weather Service in Green Bay has issued a dense fog
advisory, which is in effect until 9 am CDT Thursday.

* Visibility... dropping to a quarter mile or less.

* Impacts... Road and air travel will be slowed.

Precautionary/preparedness actions...

A dense fog advisory means visibilities will frequently be
reduced to less than one quarter mile. If driving... slow down...
use your headlights... and leave plenty of distance ahead of you.